Time;durP1;ratioP1;P1;durP2;ratioP2;P2;SDS_P1;SDS_P2;PMS_P1;PMS_P2;Temp;Humidity;BMP_temperature;BMP_pressure;BME280_temperature;BME280_humidity;BME280_pressure;Samples;Min_cycle;Max_cycle;Signal;HPM_P1;HPM_P2
2022/06/26 01:01:50;;;;;;;;;1.00;1.00;;;;;14.46;100.00;101011.97;3368454;26;45933;-91
2022/06/26 01:04:16;;;;;;;;;1.60;1.00;;;;;14.58;100.00;101031.56;5038535;28;44794;-92
2022/06/26 01:06:46;;;;;;;;;3.20;2.80;;;;;14.55;100.00;101024.66;5279082;22;45820;-92
2022/06/26 01:14:32;;;;;;;;;3.00;3.00;;;;;14.40;100.00;101001.72;3124086;22;45157;-92
2022/06/26 01:16:59;;;;;;;;;3.60;2.60;;;;;14.40;100.00;101007.06;5035941;27;44782;-90
2022/06/26 01:19:29;;;;;;;;;2.00;2.00;;;;;14.50;100.00;101031.28;5046207;28;44905;-93
2022/06/26 01:21:54;;;;;;;;;2.20;2.20;;;;;14.50;100.00;101028.63;5046905;27;45128;-91
2022/06/26 01:24:21;;;;;;;;;7.00;2.75;;;;;14.50;100.00;101033.97;5032032;27;44771;-92
2022/06/26 01:26:50;;;;;;;;;6.00;3.60;;;;;14.35;100.00;101009.25;5047684;27;44667;-91
2022/06/26 01:29:23;;;;;;;;;6.80;3.20;;;;;14.47;100.00;101031.53;5064736;27;44871;-90
2022/06/26 01:35:37;;;;;;;;;8.20;2.80;;;;;14.38;100.00;101030.41;5012036;28;44606;-91
2022/06/26 01:43:18;;;;;;;;;2.00;2.00;;;;;14.40;100.00;101044.50;2349108;26;45307;-90
2022/06/26 01:45:51;;;;;;;;;3.00;2.00;;;;;14.34;100.00;101037.81;5038239;28;44691;-91
2022/06/26 01:48:19;;;;;;;;;3.20;1.60;;;;;14.23;100.00;101037.81;5043955;28;44632;-92
2022/06/26 01:50:45;;;;;;;;;5.20;2.40;;;;;14.26;100.00;101037.56;5045234;28;44879;-90
2022/06/26 01:53:12;;;;;;;;;1.40;1.40;;;;;14.25;100.00;101043.88;5044877;28;45302;-90
2022/06/26 01:55:39;;;;;;;;;3.40;3.40;;;;;14.32;100.00;101053.13;5064704;28;44811;-91
2022/06/26 01:58:12;;;;;;;;;3.00;3.00;;;;;14.31;100.00;101046.09;5047565;27;44553;-90
2022/06/26 02:00:46;;;;;;;;;3.80;3.00;;;;;14.26;100.00;101042.91;5058891;28;44892;-89
2022/06/26 02:03:20;;;;;;;;;4.60;3.00;;;;;14.28;100.00;101059.69;5038217;28;45540;-90
2022/06/26 02:05:50;;;;;;;;;3.00;3.00;;;;;14.29;100.00;101066.72;5029217;28;44787;-90
2022/06/26 02:08:22;;;;;;;;;7.00;3.00;;;;;14.22;100.00;101037.94;5031190;27;44761;-92
2022/06/26 02:13:40;;;;;;;;;6.00;4.40;;;;;14.24;100.00;101033.31;5036079;28;44954;-91
2022/06/26 02:21:38;;;;;;;;;2.00;2.00;;;;;14.25;100.00;101048.38;4312971;26;45254;-89
2022/06/26 02:24:08;;;;;;;;;3.00;1.60;;;;;14.28;100.00;101050.81;5043211;28;45047;-90
2022/06/26 02:26:36;;;;;;;;;5.20;3.00;;;;;14.16;100.00;101036.56;5041662;28;44782;-91
2022/06/26 02:29:07;;;;;;;;;5.20;3.20;;;;;14.21;100.00;101057.59;5055451;28;44916;-91
2022/06/26 02:31:34;;;;;;;;;6.20;2.40;;;;;14.30;100.00;101059.56;5025510;28;44914;-90
2022/06/26 02:34:02;;;;;;;;;3.60;2.60;;;;;14.18;100.00;101034.66;5050948;28;45088;-91
2022/06/26 02:36:29;;;;;;;;;3.20;3.20;;;;;14.23;100.00;101034.28;5033216;28;44717;-89
2022/06/26 02:39:18;;;;;;;;;5.00;2.60;;;;;14.29;100.00;101044.50;5056852;27;44632;-90
2022/06/26 02:44:35;;;;;;;;;1.80;1.80;;;;;14.27;100.00;101033.94;4381091;26;45162;-91
2022/06/26 02:47:01;;;;;;;;;2.75;2.75;;;;;14.32;100.00;101050.47;5020317;28;44661;-89
2022/06/26 02:49:26;;;;;;;;;4.75;3.25;;;;;14.24;100.00;101042.19;5032883;28;44704;-92
2022/06/26 02:54:30;;;;;;;;;5.60;2.00;;;;;14.28;100.00;101049.00;5585729;22;46054;-89
2022/06/26 02:56:57;;;;;;;;;3.00;1.60;;;;;14.21;100.00;101034.38;5058210;28;44747;-89
2022/06/26 02:59:24;;;;;;;;;6.40;2.80;;;;;14.20;100.00;101040.72;5049859;28;44733;-91
2022/06/26 03:01:49;;;;;;;;;3.40;3.40;;;;;14.32;100.00;101057.63;5029517;28;44954;-92
2022/06/26 03:04:15;;;;;;;;;9.25;3.00;;;;;14.32;100.00;101065.66;5044736;28;45305;-89
2022/06/26 03:06:41;;;;;;;;;3.50;2.00;;;;;14.31;100.00;101067.47;5027825;28;45198;-90
2022/06/26 03:09:17;;;;;;;;;2.50;2.25;;;;;14.35;100.00;101071.59;5032556;28;45270;-92
2022/06/26 03:12:05;;;;;;;;;2.40;0.00;;;;;14.32;100.00;101052.28;5042663;28;44937;-93
2022/06/26 03:17:07;;;;;;;;;3.00;3.00;;;;;14.28;100.00;101050.81;5344768;22;46053;-90
2022/06/26 03:19:33;;;;;;;;;3.60;3.20;;;;;14.26;100.00;101048.25;5066339;27;44668;-90
2022/06/26 03:21:59;;;;;;;;;4.20;2.40;;;;;14.34;100.00;101055.69;5062711;27;44834;-89
2022/06/26 03:24:25;;;;;;;;;4.75;3.50;;;;;14.34;100.00;101053.00;5050467;28;45092;-88
2022/06/26 03:26:52;;;;;;;;;6.00;3.20;;;;;14.33;100.00;101062.84;5050769;28;44834;-88
2022/06/26 03:29:18;;;;;;;;;4.20;4.20;;;;;14.39;100.00;101070.38;5052394;28;44734;-89
2022/06/26 03:31:43;;;;;;;;;6.75;4.00;;;;;14.42;100.00;101063.97;5050542;28;44857;-90
2022/06/26 03:34:08;;;;;;;;;3.75;2.25;;;;;14.40;100.00;101057.88;5053860;28;45248;-89
2022/06/26 03:36:44;;;;;;;;;4.00;2.25;;;;;14.47;100.00;101063.59;5061728;27;44769;-92
2022/06/26 03:39:21;;;;;;;;;5.60;4.00;;;;;14.47;100.00;101071.63;5041419;28;44685;-92
2022/06/26 03:42:01;;;;;;;;;5.80;4.00;;;;;14.52;100.00;101067.66;5050417;28;44862;-92
2022/06/26 03:44:46;;;;;;;;;5.20;2.80;;;;;14.46;100.00;101044.03;5032782;28;45022;-92
2022/06/26 03:47:17;;;;;;;;;2.20;2.20;;;;;14.50;100.00;101050.84;5042104;28;44766;-92
2022/06/26 03:49:44;;;;;;;;;2.40;2.40;;;;;14.52;100.00;101054.28;5048558;28;45318;-93
2022/06/26 03:52:22;;;;;;;;;6.25;3.00;;;;;14.57;100.00;101067.28;4998760;28;45097;-92
2022/06/26 03:54:49;;;;;;;;;3.20;3.20;;;;;14.62;100.00;101063.28;5038521;28;45441;-89
2022/06/26 03:57:15;;;;;;;;;4.00;3.25;;;;;14.62;100.00;101065.94;5040809;28;44662;-90
2022/06/26 03:59:41;;;;;;;;;3.00;3.00;;;;;14.71;100.00;101072.41;5041083;28;45249;-91
2022/06/26 04:02:06;;;;;;;;;5.00;3.00;;;;;14.71;100.00;101074.22;5042805;28;44967;-90
2022/06/26 04:04:33;;;;;;;;;6.75;2.75;;;;;14.73;100.00;101081.16;5052255;28;45064;-91
2022/06/26 04:07:12;;;;;;;;;3.00;2.80;;;;;14.71;100.00;101084.94;5056935;27;44569;-93
2022/06/26 04:10:07;;;;;;;;;2.00;2.00;;;;;14.73;100.00;101091.00;5053839;28;44871;-92
2022/06/26 04:12:36;;;;;;;;;5.60;3.00;;;;;14.68;100.00;101088.69;5063689;28;44925;-92
2022/06/26 04:15:32;;;;;;;;;3.00;3.00;;;;;14.67;100.00;101096.84;5055691;28;45212;-93
2022/06/26 04:18:04;;;;;;;;;1.40;1.40;;;;;14.77;100.00;101093.31;5063240;27;44685;-92
2022/06/26 04:20:37;;;;;;;;;3.00;3.00;;;;;14.87;100.00;101101.47;5066080;27;44776;-93
2022/06/26 04:25:42;;;;;;;;;3.00;3.00;;;;;15.09;100.00;101111.31;5242788;22;46596;-86
2022/06/26 04:28:08;;;;;;;;;1.20;1.00;;;;;15.04;100.00;101092.09;5051515;28;44843;-89
2022/06/26 04:30:34;;;;;;;;;3.80;2.40;;;;;15.15;100.00;101111.66;5048847;28;44723;-90
2022/06/26 04:32:59;;;;;;;;;2.60;2.60;;;;;15.17;100.00;101111.53;5025416;28;44860;-90
2022/06/26 04:35:25;;;;;;;;;3.00;3.00;;;;;15.20;100.00;101115.81;5028121;28;45946;-87
2022/06/26 04:37:50;;;;;;;;;2.25;2.25;;;;;15.16;100.00;101109.84;5031751;28;45191;-89
2022/06/26 04:40:16;;;;;;;;;3.00;3.00;;;;;15.19;100.00;101116.78;5030528;28;45222;-89
2022/06/26 04:42:42;;;;;;;;;3.75;3.50;;;;;15.17;100.00;101112.38;5047539;28;44802;-89
2022/06/26 04:45:11;;;;;;;;;2.00;2.00;;;;;15.25;100.00;101113.59;5045771;28;45102;-90
2022/06/26 04:47:37;;;;;;;;;4.80;3.60;;;;;15.31;100.00;101113.94;5046702;28;44774;-89
2022/06/26 04:50:03;;;;;;;;;3.00;3.00;;;;;15.45;100.00;101114.66;5022601;28;45476;-88
2022/06/26 04:52:28;;;;;;;;;3.60;2.00;;;;;15.55;100.00;101105.75;5038343;28;44804;-88
2022/06/26 04:54:54;;;;;;;;;3.50;3.00;;;;;15.59;100.00;101106.34;5038416;28;45445;-90
2022/06/26 04:57:19;;;;;;;;;2.25;2.25;;;;;15.71;100.00;101123.25;5021376;28;45340;-90
2022/06/26 04:59:45;;;;;;;;;4.00;2.50;;;;;15.74;100.00;101107.81;5040009;28;45352;-90
2022/06/26 05:02:11;;;;;;;;;3.75;3.00;;;;;15.97;100.00;101108.56;5038911;28;45232;-90
2022/06/26 05:04:38;;;;;;;;;2.20;2.20;;;;;16.16;100.00;101118.59;5039403;28;46275;-89
2022/06/26 05:07:04;;;;;;;;;7.00;2.20;;;;;16.11;100.00;101115.47;5038829;28;44803;-87
2022/06/26 05:09:31;;;;;;;;;4.00;2.00;;;;;16.14;100.00;101110.66;5039775;28;45301;-88
2022/06/26 05:15:10;;;;;;;;;1.00;1.00;;;;;16.21;100.00;101119.06;5546347;22;45089;-89
2022/06/26 05:17:35;;;;;;;;;1.50;1.50;;;;;16.23;100.00;101122.44;5025237;28;45334;-88
2022/06/26 05:20:00;;;;;;;;;4.50;3.00;;;;;16.08;100.00;101116.56;5041190;28;44755;-88
2022/06/26 05:22:29;;;;;;;;;2.25;2.00;;;;;16.15;100.00;101124.94;5038778;27;45531;-93
2022/06/26 05:24:54;;;;;;;;;2.00;2.00;;;;;16.11;100.00;101118.13;5065402;27;45360;-89
2022/06/26 05:27:22;;;;;;;;;3.75;2.50;;;;;16.13;100.00;101122.38;5064178;28;44783;-91
2022/06/26 05:29:50;;;;;;;;;1.40;1.40;;;;;16.14;100.00;101113.34;5036347;28;44766;-92
2022/06/26 05:32:41;;;;;;;;;3.00;2.20;;;;;16.21;100.00;101129.78;5050409;28;44681;-90
2022/06/26 05:35:08;;;;;;;;;3.20;3.20;;;;;16.22;100.00;101123.44;5047801;28;45176;-92
2022/06/26 05:37:34;;;;;;;;;3.00;1.75;;;;;16.23;100.00;101125.13;5029662;28;45282;-91
2022/06/26 05:40:00;;;;;;;;;1.20;1.20;;;;;16.30;100.00;101120.13;5046839;28;44786;-89
2022/06/26 05:42:25;;;;;;;;;2.00;2.00;;;;;16.36;100.00;101123.13;5042022;28;44879;-87
2022/06/26 05:44:50;;;;;;;;;3.00;3.00;;;;;16.45;100.00;101125.00;5042923;28;46281;-88
2022/06/26 05:47:16;;;;;;;;;3.00;1.75;;;;;16.46;100.00;101117.81;5025274;28;44807;-89
2022/06/26 05:49:41;;;;;;;;;7.75;2.00;;;;;16.51;100.00;101130.84;5044602;28;45403;-89
2022/06/26 05:52:08;;;;;;;;;2.00;1.00;;;;;16.53;100.00;101120.81;5025577;28;44834;-89
2022/06/26 05:54:34;;;;;;;;;2.20;1.60;;;;;16.63;100.00;101117.22;5041865;28;45240;-88
2022/06/26 05:56:59;;;;;;;;;3.00;3.00;;;;;16.76;100.00;101129.59;5044478;28;44688;-88
2022/06/26 05:59:25;;;;;;;;;3.00;2.00;;;;;16.78;100.00;101122.25;5025404;28;45330;-89
2022/06/26 06:01:51;;;;;;;;;3.80;3.00;;;;;16.91;100.00;101134.47;5027238;28;44763;-89
2022/06/26 06:04:16;;;;;;;;;1.50;1.50;;;;;16.98;100.00;101132.13;5046818;28;44942;-90
2022/06/26 06:06:42;;;;;;;;;3.75;2.00;;;;;17.04;100.00;101120.00;5049567;28;44782;-90
2022/06/26 06:09:09;;;;;;;;;3.75;2.50;;;;;17.17;100.00;101121.47;5032616;28;44789;-91
2022/06/26 06:11:34;;;;;;;;;3.20;3.20;;;;;17.30;100.00;101125.72;5050179;28;44802;-91
2022/06/26 06:14:00;;;;;;;;;5.25;2.25;;;;;17.32;100.00;101131.81;5032288;28;46211;-92
2022/06/26 06:16:26;;;;;;;;;2.75;2.00;;;;;17.40;100.00;101121.22;5047041;28;44741;-92
2022/06/26 06:18:52;;;;;;;;;2.20;2.20;;;;;17.48;100.00;101138.38;5051904;28;44678;-90
2022/06/26 06:21:19;;;;;;;;;2.50;2.00;;;;;17.50;100.00;101130.16;5032780;28;44819;-92
2022/06/26 06:23:44;;;;;;;;;4.40;2.20;;;;;17.56;100.00;101139.53;5015432;28;45204;-90
2022/06/26 06:26:11;;;;;;;;;4.40;2.00;;;;;17.62;100.00;101133.59;5049142;28;44669;-91
2022/06/26 06:28:36;;;;;;;;;1.00;1.00;;;;;17.61;100.00;101132.75;5030875;28;44873;-91
2022/06/26 06:31:02;;;;;;;;;4.00;3.00;;;;;17.47;100.00;101138.50;5027698;28;44849;-89
2022/06/26 06:33:28;;;;;;;;;5.50;2.50;;;;;17.50;100.00;101148.97;5043081;28;45237;-88
2022/06/26 06:35:55;;;;;;;;;3.75;2.00;;;;;17.47;100.00;101149.25;5049037;28;44732;-88
2022/06/26 06:38:25;;;;;;;;;7.20;3.80;;;;;17.54;100.00;101145.00;5053964;28;44707;-89
2022/06/26 06:40:50;;;;;;;;;4.00;3.00;;;;;17.61;100.00;101151.56;5055489;28;44669;-91
2022/06/26 06:43:18;;;;;;;;;3.25;2.25;;;;;17.76;100.00;101161.94;5036880;28;45200;-89
2022/06/26 06:45:43;;;;;;;;;3.40;2.00;;;;;17.77;100.00;101147.50;5054755;28;44822;-89
2022/06/26 06:48:21;;;;;;;;;4.50;3.00;;;;;17.73;100.00;101155.84;5046845;28;45324;-92
2022/06/26 06:50:46;;;;;;;;;2.00;2.00;;;;;17.69;100.00;101150.84;5044179;28;45483;-87
2022/06/26 06:53:12;;;;;;;;;3.00;1.25;;;;;17.87;100.00;101159.97;5030843;28;46666;-90
2022/06/26 06:55:37;;;;;;;;;5.00;3.00;;;;;18.15;100.00;101158.28;5050046;28;44652;-90
2022/06/26 06:58:03;;;;;;;;;3.25;2.00;;;;;18.53;100.00;101170.03;5052795;28;44851;-88
2022/06/26 07:00:29;;;;;;;;;5.25;2.50;;;;;18.91;100.00;101149.44;5019722;28;44881;-87
2022/06/26 07:03:00;;;;;;;;;3.00;2.00;;;;;19.11;100.00;101159.13;5033225;28;45396;-89
2022/06/26 07:05:56;;;;;;;;;2.00;1.00;;;;;18.71;100.00;101148.63;5045603;28;44714;-92
2022/06/26 07:08:24;;;;;;;;;1.60;1.60;;;;;18.69;100.00;101159.53;5043922;28;44706;-92
2022/06/26 07:10:52;;;;;;;;;3.80;0.60;;;;;18.81;100.00;101170.13;5048770;28;44896;-92
2022/06/26 07:13:18;;;;;;;;;2.80;1.60;;;;;18.86;100.00;101170.56;5036022;28;45482;-90
2022/06/26 07:15:45;;;;;;;;;1.00;1.00;;;;;18.93;100.00;101168.97;5041027;28;44754;-89
2022/06/26 07:18:11;;;;;;;;;2.60;1.40;;;;;19.11;100.00;101183.38;5053019;28;44684;-88
2022/06/26 07:20:37;;;;;;;;;1.75;1.75;;;;;19.12;100.00;101170.75;5019737;28;44979;-91
2022/06/26 07:23:03;;;;;;;;;1.00;1.00;;;;;19.26;100.00;101181.91;5036652;28;45443;-90
2022/06/26 07:25:28;;;;;;;;;3.50;2.00;;;;;19.58;100.00;101185.13;5060298;27;44693;-87
2022/06/26 07:27:56;;;;;;;;;1.00;1.00;;;;;19.89;100.00;101197.34;5060631;28;44649;-90
2022/06/26 07:30:25;;;;;;;;;1.40;1.40;;;;;20.00;100.00;101177.38;5061834;27;44941;-91
2022/06/26 07:32:54;;;;;;;;;1.20;1.20;;;;;19.94;100.00;101194.19;5038850;28;45314;-91
2022/06/26 07:35:22;;;;;;;;;2.80;1.60;;;;;19.96;100.00;101203.81;5055026;28;44568;-91
2022/06/26 07:37:48;;;;;;;;;3.60;1.80;;;;;20.28;100.00;101203.31;5035441;28;44773;-91
2022/06/26 07:40:14;;;;;;;;;1.00;1.00;;;;;20.48;100.00;101187.81;5036124;28;44814;-92
2022/06/26 07:42:44;;;;;;;;;3.20;1.60;;;;;20.64;100.00;101202.44;5038256;28;45316;-90
2022/06/26 07:45:10;;;;;;;;;3.00;3.00;;;;;20.83;100.00;101186.03;5029853;28;44620;-89
2022/06/26 07:47:35;;;;;;;;;2.00;1.25;;;;;21.01;100.00;101191.41;5031958;28;44699;-90
2022/06/26 07:50:02;;;;;;;;;1.50;1.50;;;;;21.19;100.00;101194.91;5049530;28;44914;-93
2022/06/26 07:52:34;;;;;;;;;3.00;3.00;;;;;21.40;100.00;101193.66;5035758;28;45208;-93
2022/06/26 07:55:06;;;;;;;;;4.80;2.60;;;;;21.45;100.00;101200.28;5034632;28;44557;-93
2022/06/26 07:57:37;;;;;;;;;3.40;3.40;;;;;21.54;100.00;101196.59;5035589;28;44743;-92
2022/06/26 08:00:03;;;;;;;;;1.60;1.60;;;;;21.70;100.00;101212.03;5030377;28;44817;-90
2022/06/26 08:02:29;;;;;;;;;1.75;1.75;;;;;21.74;100.00;101197.19;5027267;28;45319;-89
2022/06/26 08:04:54;;;;;;;;;2.50;2.50;;;;;21.76;100.00;101194.34;5025718;28;44814;-90
2022/06/26 08:07:21;;;;;;;;;2.75;1.75;;;;;21.69;100.00;101202.25;5033390;28;44882;-90
2022/06/26 08:09:49;;;;;;;;;3.20;1.80;;;;;21.67;100.00;101206.97;5038085;28;44859;-90
2022/06/26 08:12:22;;;;;;;;;2.20;1.00;;;;;21.83;100.00;101195.34;5032078;28;45247;-93
2022/06/26 08:14:51;;;;;;;;;3.20;1.40;;;;;21.78;100.00;101195.00;5036648;28;44754;-91
2022/06/26 08:17:18;;;;;;;;;3.80;2.60;;;;;21.54;100.00;101193.06;5024031;28;44617;-91
2022/06/26 08:19:43;;;;;;;;;1.20;1.20;;;;;21.64;100.00;101192.94;5037502;28;44919;-89
2022/06/26 08:22:10;;;;;;;;;2.00;2.00;;;;;21.72;100.00;101185.69;5020849;28;45189;-89
2022/06/26 08:24:41;;;;;;;;;3.00;2.20;;;;;21.86;100.00;101186.06;5023012;28;44797;-90
2022/06/26 08:27:09;;;;;;;;;2.80;2.80;;;;;22.10;100.00;101190.66;5046443;28;44704;-89
2022/06/26 08:29:38;;;;;;;;;1.20;1.20;;;;;22.35;100.00;101188.88;5046686;28;44852;-90
2022/06/26 08:32:05;;;;;;;;;2.40;2.40;;;;;22.41;100.00;101197.16;5046232;28;45190;-89
2022/06/26 08:34:35;;;;;;;;;1.00;1.00;;;;;22.47;100.00;101182.09;5317366;22;44868;-88
2022/06/26 08:37:05;;;;;;;;;3.60;1.60;;;;;22.40;92.32;101195.50;5037314;28;44610;-93
2022/06/26 08:39:35;;;;;;;;;1.40;0.80;;;;;21.61;92.89;101195.94;5013476;28;44887;-89
2022/06/26 08:42:01;;;;;;;;;2.00;2.00;;;;;21.33;96.89;101198.88;5017729;28;47033;-89
2022/06/26 08:44:27;;;;;;;;;2.00;1.00;;;;;21.43;96.01;101202.31;5013876;28;44644;-88
2022/06/26 08:46:54;;;;;;;;;2.00;2.00;;;;;21.75;100.00;101203.44;5034900;28;44632;-87
2022/06/26 08:49:24;;;;;;;;;4.60;2.40;;;;;22.07;100.00;101190.00;5035203;28;44739;-88
2022/06/26 08:51:51;;;;;;;;;2.80;1.20;;;;;22.29;100.00;101182.28;5011662;28;45290;-89
2022/06/26 08:54:18;;;;;;;;;1.00;1.00;;;;;22.48;93.66;101178.38;5024815;28;44632;-90
2022/06/26 08:56:46;;;;;;;;;1.40;1.20;;;;;22.36;90.77;101187.88;5012146;28;44652;-88
2022/06/26 08:59:14;;;;;;;;;1.00;1.00;;;;;22.42;94.60;101179.91;5028651;28;44807;-87
2022/06/26 09:01:41;;;;;;;;;1.60;1.60;;;;;22.41;89.79;101180.09;5024105;28;45440;-86
2022/06/26 09:04:07;;;;;;;;;3.20;0.80;;;;;22.56;89.12;101179.22;5020798;28;44708;-87
2022/06/26 09:06:36;;;;;;;;;3.40;1.60;;;;;22.67;87.61;101175.31;5044856;28;44605;-86
2022/06/26 09:09:16;;;;;;;;;2.40;1.00;;;;;22.60;79.58;101179.75;5025757;28;45680;-86
2022/06/26 09:11:42;;;;;;;;;2.80;2.00;;;;;22.01;81.67;101173.59;5042787;28;45234;-86
2022/06/26 09:14:07;;;;;;;;;3.20;1.00;;;;;21.84;87.58;101163.75;5043383;28;44711;-84
2022/06/26 09:16:33;;;;;;;;;2.00;2.00;;;;;21.65;83.92;101173.81;5048124;28;44628;-87
2022/06/26 09:19:20;;;;;;;;;3.00;2.00;;;;;21.06;87.33;101172.88;5050142;28;44906;-87
2022/06/26 09:21:47;;;;;;;;;1.60;1.60;;;;;21.12;90.35;101163.25;5044548;28;45369;-86
2022/06/26 09:24:14;;;;;;;;;1.00;1.00;;;;;21.21;90.81;101159.59;5043128;28;44837;-85
2022/06/26 09:26:41;;;;;;;;;1.80;1.40;;;;;21.45;91.76;101162.44;5024582;28;44704;-86
2022/06/26 09:29:13;;;;;;;;;1.80;1.80;;;;;21.60;92.14;101168.06;5041351;28;44941;-86
2022/06/26 09:31:39;;;;;;;;;2.00;2.00;;;;;21.75;91.18;101166.41;5026899;28;46835;-86
2022/06/26 09:34:06;;;;;;;;;2.00;1.00;;;;;21.85;89.41;101174.38;5046020;28;44694;-87
2022/06/26 09:36:33;;;;;;;;;1.80;1.80;;;;;21.82;86.22;101166.63;5046132;28;45257;-87
2022/06/26 09:38:59;;;;;;;;;2.40;2.40;;;;;22.02;89.49;101159.03;5042731;28;44817;-86
2022/06/26 09:41:33;;;;;;;;;2.25;2.00;;;;;22.39;88.98;101155.91;5023844;28;46849;-88
2022/06/26 09:43:59;;;;;;;;;3.80;1.40;;;;;22.64;86.46;101166.72;5023364;28;44732;-87
2022/06/26 09:46:30;;;;;;;;;4.60;3.00;;;;;22.90;87.55;101158.38;5041654;28;45320;-87
2022/06/26 09:48:57;;;;;;;;;5.60;2.80;;;;;23.14;87.29;101152.91;5043159;28;44823;-86
2022/06/26 09:51:23;;;;;;;;;13.40;8.40;;;;;23.40;85.31;101149.06;5029479;28;45302;-86
2022/06/26 09:53:58;;;;;;;;;5.00;5.00;;;;;23.60;85.62;101158.47;5040004;28;44626;-85
2022/06/26 09:56:24;;;;;;;;;9.80;8.40;;;;;23.69;84.40;101160.16;5042301;28;44656;-85
2022/06/26 09:58:52;;;;;;;;;5.40;3.60;;;;;23.74;81.87;101163.19;5028027;28;44811;-86
2022/06/26 10:06:48;;;;;;;;;1.20;1.20;;;;;23.10;86.55;101167.81;5041410;28;44797;-88
2022/06/26 10:09:17;;;;;;;;;2.60;2.40;;;;;22.92;84.69;101151.78;5022562;28;44978;-86
2022/06/26 10:11:45;;;;;;;;;3.80;3.80;;;;;22.87;87.74;101164.13;5040753;28;45326;-86
2022/06/26 10:14:27;;;;;;;;;3.80;2.20;;;;;22.85;88.98;101158.88;5043285;28;44786;-86
2022/06/26 10:17:16;;;;;;;;;4.00;3.40;;;;;23.03;89.44;101164.13;5045910;28;44652;-85
2022/06/26 10:19:56;;;;;;;;;5.20;5.20;;;;;23.08;91.67;101145.47;5046718;28;44861;-86
2022/06/26 10:22:21;;;;;;;;;6.60;5.20;;;;;23.26;87.58;101153.38;5028106;28;46935;-86
2022/06/26 10:25:00;;;;;;;;;3.00;2.50;;;;;23.39;87.75;101150.94;5043840;28;44830;-87
2022/06/26 10:27:28;;;;;;;;;3.60;3.20;;;;;23.31;87.88;101154.53;5040036;28;44822;-87
2022/06/26 10:30:06;;;;;;;;;4.60;3.60;;;;;23.46;89.40;101153.81;5042852;28;44885;-87
2022/06/26 10:32:32;;;;;;;;;1.00;1.00;;;;;23.22;89.13;101154.75;5026243;28;45261;-85
2022/06/26 10:34:58;;;;;;;;;4.50;1.50;;;;;23.07;88.31;101150.06;5044513;28;44833;-85
2022/06/26 10:37:24;;;;;;;;;4.25;3.00;;;;;23.16;89.63;101150.00;5047850;28;44653;-86
2022/06/26 10:39:52;;;;;;;;;3.40;2.00;;;;;23.37;87.55;101155.69;5045835;28;44848;-85
2022/06/26 10:45:25;;;;;;;;;2.00;2.00;;;;;23.34;88.19;101150.63;5040201;28;44692;-86
2022/06/26 10:47:56;;;;;;;;;3.80;2.00;;;;;23.44;88.77;101155.84;5040568;28;44711;-86
2022/06/26 10:50:38;;;;;;;;;3.00;3.00;;;;;23.52;87.98;101170.19;5038784;28;44977;-86
2022/06/26 10:53:23;;;;;;;;;2.00;2.00;;;;;23.62;87.15;101169.16;5039743;28;45303;-84
2022/06/26 10:56:00;;;;;;;;;5.80;4.60;;;;;23.45;86.94;101157.50;5038114;28;45275;-86
2022/06/26 10:58:31;;;;;;;;;5.40;3.80;;;;;23.38;87.55;101157.38;5023169;28;44673;-88
2022/06/26 11:01:03;;;;;;;;;3.00;3.00;;;;;23.47;88.67;101158.19;5025342;28;44837;-87
2022/06/26 11:03:30;;;;;;;;;6.40;4.00;;;;;23.55;87.35;101161.72;5039516;28;45219;-88
2022/06/26 11:06:22;;;;;;;;;10.00;8.80;;;;;23.85;87.80;101156.50;5039808;28;44711;-89
2022/06/26 11:08:49;;;;;;;;;8.80;5.60;;;;;24.26;86.19;101165.19;5035849;28;44879;-89
2022/06/26 11:11:27;;;;;;;;;7.40;5.80;;;;;24.58;85.04;101149.69;5024519;28;45256;-89
2022/06/26 11:13:58;;;;;;;;;2.20;2.20;;;;;24.98;81.27;101153.00;5043637;28;45585;-87
2022/06/26 11:16:38;;;;;;;;;9.80;8.40;;;;;25.25;78.65;101146.09;5051841;28;44691;-88
2022/06/26 11:19:06;;;;;;;;;7.00;7.00;;;;;25.37;76.89;101142.69;5061405;27;44669;-89
2022/06/26 11:21:33;;;;;;;;;3.00;2.60;;;;;25.63;76.42;101139.47;5040900;28;44954;-88
2022/06/26 11:23:59;;;;;;;;;3.40;3.20;;;;;25.42;78.15;101128.53;5025925;28;46853;-84
2022/06/26 11:26:25;;;;;;;;;4.00;3.40;;;;;25.38;76.47;101132.66;5048178;28;44742;-86
2022/06/26 11:29:00;;;;;;;;;5.00;3.50;;;;;25.19;75.74;101136.84;5027517;28;44723;-85
2022/06/26 11:31:29;;;;;;;;;4.00;4.00;;;;;25.15;76.28;101148.28;5022215;28;45386;-85
2022/06/26 11:34:05;;;;;;;;;7.00;4.00;;;;;25.11;73.18;101143.19;5040573;28;45097;-85
2022/06/26 11:36:31;;;;;;;;;4.80;4.80;;;;;25.12;74.10;101144.88;5039296;28;44803;-85
2022/06/26 11:38:56;;;;;;;;;6.00;6.00;;;;;25.47;74.90;101144.28;5039435;28;45093;-85
2022/06/26 11:41:23;;;;;;;;;5.00;5.00;;;;;25.60;71.82;101144.44;5039169;28;45319;-84
2022/06/26 11:43:54;;;;;;;;;4.40;4.00;;;;;25.50;71.16;101142.03;5039155;28;45371;-85
2022/06/26 11:46:22;;;;;;;;;4.00;2.40;;;;;25.19;68.52;101144.13;5023608;28;44659;-89
2022/06/26 11:48:50;;;;;;;;;5.20;3.60;;;;;24.90;73.83;101139.50;5043951;28;44773;-87
2022/06/26 11:51:17;;;;;;;;;4.20;3.00;;;;;24.74;76.04;101135.91;5044383;28;44786;-87
2022/06/26 11:53:45;;;;;;;;;2.00;2.00;;;;;24.59;70.80;101138.63;5027501;28;45311;-88
2022/06/26 11:56:26;;;;;;;;;3.00;3.00;;;;;24.64;75.35;101127.19;5029402;28;44723;-85
2022/06/26 11:58:54;;;;;;;;;2.80;2.80;;;;;24.73;67.88;101147.81;5046802;28;44793;-85
2022/06/26 12:01:20;;;;;;;;;2.60;2.60;;;;;24.84;73.90;101139.22;5049740;28;44946;-84
2022/06/26 12:03:53;;;;;;;;;2.80;2.00;;;;;24.44;62.14;101134.19;5048724;28;45247;-85
2022/06/26 12:06:36;;;;;;;;;3.20;2.80;;;;;24.30;69.48;101133.94;5048093;28;44734;-83
2022/06/26 12:09:15;;;;;;;;;2.00;2.00;;;;;24.35;71.27;101122.50;5048376;28;44603;-85
2022/06/26 12:11:44;;;;;;;;;3.00;3.00;;;;;24.32;73.37;101131.03;5047259;28;44743;-86
2022/06/26 12:14:11;;;;;;;;;3.40;3.40;;;;;24.33;67.49;101128.16;5028775;28;45527;-85
2022/06/26 12:16:44;;;;;;;;;2.20;2.20;;;;;24.19;72.13;101126.22;5046579;28;44731;-84
2022/06/26 12:19:10;;;;;;;;;3.20;3.00;;;;;24.22;69.99;101133.16;5044935;28;44665;-86
2022/06/26 12:21:35;;;;;;;;;3.25;3.25;;;;;24.22;73.87;101133.97;5026387;28;44861;-85
2022/06/26 12:24:01;;;;;;;;;4.00;4.00;;;;;24.33;75.46;101125.44;5043653;28;45531;-86
2022/06/26 12:26:28;;;;;;;;;7.00;7.00;;;;;24.48;77.31;101128.22;5045681;28;44660;-85
2022/06/26 12:29:00;;;;;;;;;7.60;7.60;;;;;24.67;74.25;101120.56;5047964;28;44802;-86
2022/06/26 12:31:25;;;;;;;;;4.60;4.60;;;;;24.75;70.99;101120.47;5048704;28;44804;-84
2022/06/26 12:33:56;;;;;;;;;10.50;9.50;;;;;24.80;72.71;101123.47;5046912;28;45148;-85
2022/06/26 12:36:21;;;;;;;;;7.40;6.00;;;;;24.92;72.92;101121.97;5001600;28;44785;-85
2022/06/26 12:38:47;;;;;;;;;4.00;4.00;;;;;24.86;71.32;101112.69;4998728;28;44748;-85
2022/06/26 12:41:16;;;;;;;;;4.00;4.00;;;;;25.28;71.00;101121.22;5000471;28;44996;-85
2022/06/26 12:43:52;;;;;;;;;3.00;3.00;;;;;25.61;66.17;101116.19;5001834;28;45306;-86
2022/06/26 12:46:19;;;;;;;;;4.20;2.80;;;;;26.20;68.31;101105.09;4999749;28;44763;-85
2022/06/26 12:48:45;;;;;;;;;3.00;2.00;;;;;26.47;61.36;101097.16;5001751;28;44781;-85
2022/06/26 12:51:11;;;;;;;;;3.20;2.20;;;;;26.58;65.23;101092.00;5001560;28;44765;-84
2022/06/26 12:53:37;;;;;;;;;2.75;2.75;;;;;26.91;59.50;101105.84;4998707;28;45206;-85
2022/06/26 12:56:03;;;;;;;;;3.40;3.40;;;;;27.29;59.33;101096.41;4996706;28;44813;-83
2022/06/26 12:58:28;;;;;;;;;3.00;3.00;;;;;27.23;53.86;101091.78;4999345;28;44791;-84
2022/06/26 13:00:54;;;;;;;;;6.25;6.25;;;;;26.99;58.82;101096.69;4997292;28;44926;-84
2022/06/26 13:03:21;;;;;;;;;3.75;3.00;;;;;26.84;59.94;101102.25;4996952;28;46826;-85
2022/06/26 13:05:47;;;;;;;;;1.80;1.80;;;;;26.55;58.00;101091.59;4998553;28;44811;-84
2022/06/26 13:08:14;;;;;;;;;2.00;2.00;;;;;26.39;61.35;101096.22;5022025;28;44768;-87
2022/06/26 13:10:40;;;;;;;;;3.80;3.80;;;;;26.24;60.68;101090.03;5019900;28;44878;-85
2022/06/26 13:13:05;;;;;;;;;3.60;2.60;;;;;26.05;59.69;101090.72;5022604;28;45076;-84